Terminal Aerodrome Forecast
Issued by NWS

Home | Current Version | Previous Version | Text Only | Print | Product List | Glossary On
Versions: 1 2 3 4 5 6 7 8 9 10 11 12 13 14 15 16
000
FTUS41 KGYX 200908 AAA
TAFAUG
TAF AMD
KAUG 200908Z 2009/2106 20004KT P6SM SCT250
     FM201500 20008G15KT P6SM BKN250
     FM202100 20006KT P6SM BKN120
     FM210300 20004KT 2SM BR BKN002=

USA.gov is the U.S. government's official web portal to all federal, state and local government web resources and services.